sensor_id;sensor_type;location;lat;lon;timestamp;P1;durP1;ratioP1;P2;durP2;ratioP2
51732;SDS011;39139;53.144;6.244;2022-12-08T00:01:24;7.30;;;1.30;;
51732;SDS011;39139;53.144;6.244;2022-12-08T00:03:51;5.03;;;0.47;;
51732;SDS011;39139;53.144;6.244;2022-12-08T00:06:25;3.88;;;0.38;;
51732;SDS011;39139;53.144;6.244;2022-12-08T00:11:56;9.25;;;1.38;;
51732;SDS011;39139;53.144;6.244;2022-12-08T00:14:40;2.38;;;1.60;;
51732;SDS011;39139;53.144;6.244;2022-12-08T00:17:08;5.35;;;1.10;;
51732;SDS011;39139;53.144;6.244;2022-12-08T00:19:35;9.68;;;0.63;;
51732;SDS011;39139;53.144;6.244;2022-12-08T00:22:03;4.70;;;0.75;;
51732;SDS011;39139;53.144;6.244;2022-12-08T00:24:35;6.80;;;0.93;;
51732;SDS011;39139;53.144;6.244;2022-12-08T00:27:08;4.47;;;0.70;;
51732;SDS011;39139;53.144;6.244;2022-12-08T00:29:36;4.95;;;1.00;;
51732;SDS011;39139;53.144;6.244;2022-12-08T00:32:02;5.50;;;0.80;;
51732;SDS011;39139;53.144;6.244;2022-12-08T00:34:29;8.65;;;1.10;;
51732;SDS011;39139;53.144;6.244;2022-12-08T00:36:55;9.25;;;1.10;;
51732;SDS011;39139;53.144;6.244;2022-12-08T00:39:20;6.18;;;1.27;;
51732;SDS011;39139;53.144;6.244;2022-12-08T00:41:46;7.22;;;1.35;;
51732;SDS011;39139;53.144;6.244;2022-12-08T00:44:30;10.18;;;1.48;;
51732;SDS011;39139;53.144;6.244;2022-12-08T00:46:56;3.97;;;1.23;;
51732;SDS011;39139;53.144;6.244;2022-12-08T00:49:21;4.22;;;1.10;;
51732;SDS011;39139;53.144;6.244;2022-12-08T00:51:47;7.35;;;1.13;;
51732;SDS011;39139;53.144;6.244;2022-12-08T00:54:13;4.57;;;1.35;;
51732;SDS011;39139;53.144;6.244;2022-12-08T00:56:39;5.78;;;0.80;;
51732;SDS011;39139;53.144;6.244;2022-12-08T00:59:05;7.38;;;1.05;;
51732;SDS011;39139;53.144;6.244;2022-12-08T01:01:31;4.20;;;0.85;;
51732;SDS011;39139;53.144;6.244;2022-12-08T01:03:57;2.90;;;0.50;;
51732;SDS011;39139;53.144;6.244;2022-12-08T01:06:30;1.73;;;0.47;;
51732;SDS011;39139;53.144;6.244;2022-12-08T01:08:56;2.17;;;0.35;;
51732;SDS011;39139;53.144;6.244;2022-12-08T01:11:22;4.88;;;0.40;;
51732;SDS011;39139;53.144;6.244;2022-12-08T01:13:47;2.72;;;0.80;;
51732;SDS011;39139;53.144;6.244;2022-12-08T01:16:20;5.70;;;0.50;;
51732;SDS011;39139;53.144;6.244;2022-12-08T01:18:50;4.68;;;0.55;;
51732;SDS011;39139;53.144;6.244;2022-12-08T01:21:17;3.75;;;0.88;;
51732;SDS011;39139;53.144;6.244;2022-12-08T01:23:42;3.67;;;0.68;;
51732;SDS011;39139;53.144;6.244;2022-12-08T01:26:09;6.57;;;0.82;;
51732;SDS011;39139;53.144;6.244;2022-12-08T01:28:38;3.80;;;0.73;;
51732;SDS011;39139;53.144;6.244;2022-12-08T01:31:04;1.35;;;0.32;;
51732;SDS011;39139;53.144;6.244;2022-12-08T01:33:34;4.72;;;0.52;;
51732;SDS011;39139;53.144;6.244;2022-12-08T01:36:03;1.48;;;0.17;;
51732;SDS011;39139;53.144;6.244;2022-12-08T01:38:29;8.70;;;0.50;;
51732;SDS011;39139;53.144;6.244;2022-12-08T01:40:56;0.80;;;0.20;;
51732;SDS011;39139;53.144;6.244;2022-12-08T01:43:21;1.30;;;0.10;;
51732;SDS011;39139;53.144;6.244;2022-12-08T01:45:47;2.65;;;0.20;;
51732;SDS011;39139;53.144;6.244;2022-12-08T01:48:15;4.68;;;0.55;;
51732;SDS011;39139;53.144;6.244;2022-12-08T01:50:45;1.10;;;0.10;;
51732;SDS011;39139;53.144;6.244;2022-12-08T01:53:21;3.60;;;0.10;;
51732;SDS011;39139;53.144;6.244;2022-12-08T01:55:50;2.70;;;0.35;;
51732;SDS011;39139;53.144;6.244;2022-12-08T02:01:06;1.30;;;0.10;;
51732;SDS011;39139;53.144;6.244;2022-12-08T02:03:36;2.47;;;0.10;;
51732;SDS011;39139;53.144;6.244;2022-12-08T02:06:17;7.30;;;0.38;;
51732;SDS011;39139;53.144;6.244;2022-12-08T02:08:43;1.27;;;0.17;;
51732;SDS011;39139;53.144;6.244;2022-12-08T02:11:10;3.08;;;0.25;;
51732;SDS011;39139;53.144;6.244;2022-12-08T02:13:37;1.30;;;0.10;;
51732;SDS011;39139;53.144;6.244;2022-12-08T02:21:48;3.50;;;0.10;;
51732;SDS011;39139;53.144;6.244;2022-12-08T02:24:21;1.92;;;0.00;;
51732;SDS011;39139;53.144;6.244;2022-12-08T02:37:49;3.95;;;0.05;;
51732;SDS011;39139;53.144;6.244;2022-12-08T02:48:02;1.30;;;0.30;;
51732;SDS011;39139;53.144;6.244;2022-12-08T02:50:28;0.45;;;0.20;;
51732;SDS011;39139;53.144;6.244;2022-12-08T02:52:54;3.28;;;0.22;;
51732;SDS011;39139;53.144;6.244;2022-12-08T03:01:02;1.98;;;0.20;;
51732;SDS011;39139;53.144;6.244;2022-12-08T03:06:33;0.47;;;0.30;;
51732;SDS011;39139;53.144;6.244;2022-12-08T03:11:59;3.45;;;0.50;;
51732;SDS011;39139;53.144;6.244;2022-12-08T03:14:25;1.65;;;0.30;;
51732;SDS011;39139;53.144;6.244;2022-12-08T03:16:54;2.40;;;0.40;;
51732;SDS011;39139;53.144;6.244;2022-12-08T03:19:22;1.20;;;0.13;;
51732;SDS011;39139;53.144;6.244;2022-12-08T03:21:52;3.25;;;0.52;;
51732;SDS011;39139;53.144;6.244;2022-12-08T03:24:26;0.47;;;0.10;;
51732;SDS011;39139;53.144;6.244;2022-12-08T03:27:24;4.85;;;0.30;;
51732;SDS011;39139;53.144;6.244;2022-12-08T03:29:51;2.20;;;0.05;;
51732;SDS011;39139;53.144;6.244;2022-12-08T03:32:29;1.38;;;0.10;;
51732;SDS011;39139;53.144;6.244;2022-12-08T03:35:04;1.42;;;0.00;;
51732;SDS011;39139;53.144;6.244;2022-12-08T03:37:35;3.25;;;0.00;;
51732;SDS011;39139;53.144;6.244;2022-12-08T03:40:03;0.28;;;0.00;;
51732;SDS011;39139;53.144;6.244;2022-12-08T03:42:31;1.48;;;0.00;;
51732;SDS011;39139;53.144;6.244;2022-12-08T03:44:57;0.13;;;0.13;;
51732;SDS011;39139;53.144;6.244;2022-12-08T03:47:22;0.10;;;0.00;;
51732;SDS011;39139;53.144;6.244;2022-12-08T03:49:48;0.82;;;0.05;;
51732;SDS011;39139;53.144;6.244;2022-12-08T03:52:14;1.02;;;0.00;;
51732;SDS011;39139;53.144;6.244;2022-12-08T03:54:39;0.00;;;0.00;;
51732;SDS011;39139;53.144;6.244;2022-12-08T03:57:05;0.75;;;0.00;;
51732;SDS011;39139;53.144;6.244;2022-12-08T03:59:31;0.00;;;0.00;;
51732;SDS011;39139;53.144;6.244;2022-12-08T04:01:56;0.10;;;0.00;;
51732;SDS011;39139;53.144;6.244;2022-12-08T04:04:22;0.63;;;0.00;;
51732;SDS011;39139;53.144;6.244;2022-12-08T04:06:48;1.02;;;0.10;;
51732;SDS011;39139;53.144;6.244;2022-12-08T04:09:14;1.95;;;0.08;;
51732;SDS011;39139;53.144;6.244;2022-12-08T04:11:40;0.55;;;0.00;;
51732;SDS011;39139;53.144;6.244;2022-12-08T04:14:05;0.10;;;0.00;;
51732;SDS011;39139;53.144;6.244;2022-12-08T04:16:31;2.03;;;0.10;;
51732;SDS011;39139;53.144;6.244;2022-12-08T04:18:57;0.90;;;0.00;;
51732;SDS011;39139;53.144;6.244;2022-12-08T04:21:22;0.30;;;0.00;;
51732;SDS011;39139;53.144;6.244;2022-12-08T04:23:48;0.10;;;0.00;;
51732;SDS011;39139;53.144;6.244;2022-12-08T04:26:14;0.20;;;0.00;;
51732;SDS011;39139;53.144;6.244;2022-12-08T04:28:40;1.60;;;0.00;;
51732;SDS011;39139;53.144;6.244;2022-12-08T04:31:05;3.40;;;0.10;;
51732;SDS011;39139;53.144;6.244;2022-12-08T04:33:31;1.23;;;0.10;;
51732;SDS011;39139;53.144;6.244;2022-12-08T04:35:59;0.70;;;0.10;;
51732;SDS011;39139;53.144;6.244;2022-12-08T04:38:25;1.45;;;0.10;;
51732;SDS011;39139;53.144;6.244;2022-12-08T04:40:50;1.38;;;0.00;;
51732;SDS011;39139;53.144;6.244;2022-12-08T04:43:16;0.75;;;0.10;;
51732;SDS011;39139;53.144;6.244;2022-12-08T04:45:42;0.10;;;0.00;;
51732;SDS011;39139;53.144;6.244;2022-12-08T04:48:08;0.10;;;0.00;;
51732;SDS011;39139;53.144;6.244;2022-12-08T04:50:37;1.75;;;0.00;;
51732;SDS011;39139;53.144;6.244;2022-12-08T04:53:04;3.60;;;0.00;;
51732;SDS011;39139;53.144;6.244;2022-12-08T04:55:30;1.38;;;0.00;;
51732;SDS011;39139;53.144;6.244;2022-12-08T04:57:56;0.30;;;0.00;;
51732;SDS011;39139;53.144;6.244;2022-12-08T05:00:21;1.38;;;0.05;;
51732;SDS011;39139;53.144;6.244;2022-12-08T05:02:47;0.50;;;0.03;;
51732;SDS011;39139;53.144;6.244;2022-12-08T05:05:12;2.38;;;0.10;;
51732;SDS011;39139;53.144;6.244;2022-12-08T05:07:38;2.53;;;0.22;;
51732;SDS011;39139;53.144;6.244;2022-12-08T05:10:04;0.25;;;0.10;;
51732;SDS011;39139;53.144;6.244;2022-12-08T05:12:30;1.13;;;0.20;;
51732;SDS011;39139;53.144;6.244;2022-12-08T05:14:56;0.32;;;0.10;;
51732;SDS011;39139;53.144;6.244;2022-12-08T05:17:21;0.20;;;0.08;;
51732;SDS011;39139;53.144;6.244;2022-12-08T05:19:47;0.00;;;0.00;;
51732;SDS011;39139;53.144;6.244;2022-12-08T05:22:13;4.30;;;0.20;;
51732;SDS011;39139;53.144;6.244;2022-12-08T05:24:38;1.35;;;0.20;;
51732;SDS011;39139;53.144;6.244;2022-12-08T05:27:04;0.47;;;0.00;;
51732;SDS011;39139;53.144;6.244;2022-12-08T05:29:29;1.98;;;0.10;;
51732;SDS011;39139;53.144;6.244;2022-12-08T05:31:55;0.50;;;0.10;;
51732;SDS011;39139;53.144;6.244;2022-12-08T05:34:21;1.40;;;0.00;;
51732;SDS011;39139;53.144;6.244;2022-12-08T05:36:46;0.17;;;0.10;;
51732;SDS011;39139;53.144;6.244;2022-12-08T05:39:12;2.17;;;0.25;;
51732;SDS011;39139;53.144;6.244;2022-12-08T05:41:39;5.30;;;0.28;;
51732;SDS011;39139;53.144;6.244;2022-12-08T05:44:05;1.90;;;0.10;;
51732;SDS011;39139;53.144;6.244;2022-12-08T05:46:31;2.83;;;0.30;;
51732;SDS011;39139;53.144;6.244;2022-12-08T05:48:58;3.80;;;0.20;;
51732;SDS011;39139;53.144;6.244;2022-12-08T05:51:24;0.75;;;0.10;;
51732;SDS011;39139;53.144;6.244;2022-12-08T05:53:50;1.13;;;0.10;;
51732;SDS011;39139;53.144;6.244;2022-12-08T05:56:16;3.50;;;0.10;;
51732;SDS011;39139;53.144;6.244;2022-12-08T05:58:42;2.83;;;0.20;;
51732;SDS011;39139;53.144;6.244;2022-12-08T06:01:19;1.88;;;0.13;;
51732;SDS011;39139;53.144;6.244;2022-12-08T06:03:51;3.35;;;0.00;;
51732;SDS011;39139;53.144;6.244;2022-12-08T06:06:16;3.22;;;0.22;;
51732;SDS011;39139;53.144;6.244;2022-12-08T06:08:42;2.05;;;0.20;;
51732;SDS011;39139;53.144;6.244;2022-12-08T06:11:08;2.78;;;0.20;;
51732;SDS011;39139;53.144;6.244;2022-12-08T06:13:34;5.10;;;0.38;;
51732;SDS011;39139;53.144;6.244;2022-12-08T06:16:04;2.75;;;0.38;;
51732;SDS011;39139;53.144;6.244;2022-12-08T06:18:31;3.60;;;0.45;;
51732;SDS011;39139;53.144;6.244;2022-12-08T06:21:06;2.95;;;0.20;;
51732;SDS011;39139;53.144;6.244;2022-12-08T06:23:34;5.47;;;0.30;;
51732;SDS011;39139;53.144;6.244;2022-12-08T06:26:04;3.00;;;0.60;;
51732;SDS011;39139;53.144;6.244;2022-12-08T06:28:32;3.15;;;0.65;;
51732;SDS011;39139;53.144;6.244;2022-12-08T06:30:59;2.70;;;0.47;;
51732;SDS011;39139;53.144;6.244;2022-12-08T06:33:30;3.20;;;0.35;;
51732;SDS011;39139;53.144;6.244;2022-12-08T06:35:57;4.57;;;0.25;;
51732;SDS011;39139;53.144;6.244;2022-12-08T06:38:23;1.42;;;0.40;;
51732;SDS011;39139;53.144;6.244;2022-12-08T06:40:52;3.10;;;0.22;;
51732;SDS011;39139;53.144;6.244;2022-12-08T06:43:22;0.57;;;0.25;;
51732;SDS011;39139;53.144;6.244;2022-12-08T06:45:48;5.68;;;0.63;;
51732;SDS011;39139;53.144;6.244;2022-12-08T06:48:14;6.90;;;0.43;;
51732;SDS011;39139;53.144;6.244;2022-12-08T06:50:40;5.93;;;0.60;;
51732;SDS011;39139;53.144;6.244;2022-12-08T06:53:06;2.65;;;0.30;;
51732;SDS011;39139;53.144;6.244;2022-12-08T06:55:32;0.93;;;0.28;;
51732;SDS011;39139;53.144;6.244;2022-12-08T06:57:57;1.67;;;0.40;;
51732;SDS011;39139;53.144;6.244;2022-12-08T07:00:23;1.70;;;0.32;;
51732;SDS011;39139;53.144;6.244;2022-12-08T07:02:49;3.67;;;0.30;;
51732;SDS011;39139;53.144;6.244;2022-12-08T07:05:15;3.40;;;0.40;;
51732;SDS011;39139;53.144;6.244;2022-12-08T07:07:40;3.88;;;0.45;;
51732;SDS011;39139;53.144;6.244;2022-12-08T07:10:06;2.45;;;0.50;;
51732;SDS011;39139;53.144;6.244;2022-12-08T07:12:32;9.45;;;0.90;;
51732;SDS011;39139;53.144;6.244;2022-12-08T07:14:58;2.55;;;0.88;;
51732;SDS011;39139;53.144;6.244;2022-12-08T07:17:23;2.55;;;0.57;;
51732;SDS011;39139;53.144;6.244;2022-12-08T07:19:49;2.03;;;0.50;;
51732;SDS011;39139;53.144;6.244;2022-12-08T07:22:15;3.42;;;0.63;;
51732;SDS011;39139;53.144;6.244;2022-12-08T07:24:40;5.28;;;0.57;;
51732;SDS011;39139;53.144;6.244;2022-12-08T07:27:06;2.67;;;0.65;;
51732;SDS011;39139;53.144;6.244;2022-12-08T07:29:32;6.60;;;0.77;;
51732;SDS011;39139;53.144;6.244;2022-12-08T07:31:58;4.38;;;1.08;;
51732;SDS011;39139;53.144;6.244;2022-12-08T07:34:23;4.55;;;0.77;;
51732;SDS011;39139;53.144;6.244;2022-12-08T07:36:49;2.80;;;0.40;;
51732;SDS011;39139;53.144;6.244;2022-12-08T07:39:14;6.75;;;0.73;;
51732;SDS011;39139;53.144;6.244;2022-12-08T07:41:40;7.00;;;0.52;;
51732;SDS011;39139;53.144;6.244;2022-12-08T07:44:06;6.45;;;0.70;;
51732;SDS011;39139;53.144;6.244;2022-12-08T07:46:32;3.65;;;0.70;;
51732;SDS011;39139;53.144;6.244;2022-12-08T07:48:58;3.78;;;0.73;;
51732;SDS011;39139;53.144;6.244;2022-12-08T07:51:24;7.10;;;1.00;;
51732;SDS011;39139;53.144;6.244;2022-12-08T07:53:50;4.03;;;0.70;;
51732;SDS011;39139;53.144;6.244;2022-12-08T07:56:16;6.60;;;0.95;;
51732;SDS011;39139;53.144;6.244;2022-12-08T07:58:42;4.07;;;0.50;;
51732;SDS011;39139;53.144;6.244;2022-12-08T08:04:05;2.83;;;0.82;;
51732;SDS011;39139;53.144;6.244;2022-12-08T08:06:32;1.90;;;0.50;;
51732;SDS011;39139;53.144;6.244;2022-12-08T08:08:59;2.85;;;0.70;;
51732;SDS011;39139;53.144;6.244;2022-12-08T08:11:25;4.28;;;0.82;;
51732;SDS011;39139;53.144;6.244;2022-12-08T08:13:51;8.38;;;1.23;;
51732;SDS011;39139;53.144;6.244;2022-12-08T08:16:17;8.40;;;1.20;;
51732;SDS011;39139;53.144;6.244;2022-12-08T08:18:45;3.28;;;1.02;;
51732;SDS011;39139;53.144;6.244;2022-12-08T08:21:11;11.55;;;1.42;;
51732;SDS011;39139;53.144;6.244;2022-12-08T08:23:37;12.40;;;2.17;;
51732;SDS011;39139;53.144;6.244;2022-12-08T08:26:03;6.38;;;1.30;;
51732;SDS011;39139;53.144;6.244;2022-12-08T08:28:29;5.72;;;1.27;;
51732;SDS011;39139;53.144;6.244;2022-12-08T08:30:56;2.88;;;0.80;;
51732;SDS011;39139;53.144;6.244;2022-12-08T08:33:22;4.75;;;1.42;;
51732;SDS011;39139;53.144;6.244;2022-12-08T08:35:48;6.35;;;1.30;;
51732;SDS011;39139;53.144;6.244;2022-12-08T08:38:13;3.78;;;1.05;;
51732;SDS011;39139;53.144;6.244;2022-12-08T08:40:39;8.77;;;1.70;;
51732;SDS011;39139;53.144;6.244;2022-12-08T08:43:05;3.28;;;1.27;;
51732;SDS011;39139;53.144;6.244;2022-12-08T08:45:31;9.15;;;1.35;;
51732;SDS011;39139;53.144;6.244;2022-12-08T08:47:57;7.03;;;0.77;;
51732;SDS011;39139;53.144;6.244;2022-12-08T08:50:23;8.68;;;1.45;;
51732;SDS011;39139;53.144;6.244;2022-12-08T08:52:49;4.55;;;1.20;;
51732;SDS011;39139;53.144;6.244;2022-12-08T08:55:15;2.40;;;1.65;;
51732;SDS011;39139;53.144;6.244;2022-12-08T08:57:41;5.00;;;1.25;;
51732;SDS011;39139;53.144;6.244;2022-12-08T09:00:07;9.52;;;1.67;;
51732;SDS011;39139;53.144;6.244;2022-12-08T09:02:34;7.60;;;1.58;;
51732;SDS011;39139;53.144;6.244;2022-12-08T09:05:01;3.00;;;0.95;;
51732;SDS011;39139;53.144;6.244;2022-12-08T09:07:27;4.07;;;0.73;;
51732;SDS011;39139;53.144;6.244;2022-12-08T09:09:52;3.63;;;1.15;;
51732;SDS011;39139;53.144;6.244;2022-12-08T09:12:19;3.67;;;1.00;;
51732;SDS011;39139;53.144;6.244;2022-12-08T09:14:45;3.28;;;1.02;;
51732;SDS011;39139;53.144;6.244;2022-12-08T09:17:11;8.40;;;0.68;;
51732;SDS011;39139;53.144;6.244;2022-12-08T09:19:36;7.18;;;1.00;;
51732;SDS011;39139;53.144;6.244;2022-12-08T09:22:02;7.43;;;1.05;;
51732;SDS011;39139;53.144;6.244;2022-12-08T09:24:28;5.43;;;1.25;;
51732;SDS011;39139;53.144;6.244;2022-12-08T09:26:54;4.05;;;1.10;;
51732;SDS011;39139;53.144;6.244;2022-12-08T09:29:19;10.15;;;1.42;;
51732;SDS011;39139;53.144;6.244;2022-12-08T09:31:45;3.83;;;0.80;;
51732;SDS011;39139;53.144;6.244;2022-12-08T09:34:10;10.80;;;1.33;;
51732;SDS011;39139;53.144;6.244;2022-12-08T09:36:36;7.20;;;1.48;;
51732;SDS011;39139;53.144;6.244;2022-12-08T09:39:02;9.95;;;1.38;;
51732;SDS011;39139;53.144;6.244;2022-12-08T09:41:32;3.88;;;0.95;;
51732;SDS011;39139;53.144;6.244;2022-12-08T09:47:20;4.10;;;1.00;;
51732;SDS011;39139;53.144;6.244;2022-12-08T09:50:19;4.30;;;0.70;;
51732;SDS011;39139;53.144;6.244;2022-12-08T09:53:07;4.30;;;1.15;;
51732;SDS011;39139;53.144;6.244;2022-12-08T09:55:45;4.68;;;1.17;;
51732;SDS011;39139;53.144;6.244;2022-12-08T09:59:03;2.40;;;1.02;;
51732;SDS011;39139;53.144;6.244;2022-12-08T10:01:16;11.75;;;1.95;;
51732;SDS011;39139;53.144;6.244;2022-12-08T10:03:44;8.35;;;1.58;;
51732;SDS011;39139;53.144;6.244;2022-12-08T10:12:00;6.35;;;0.98;;
51732;SDS011;39139;53.144;6.244;2022-12-08T10:14:46;8.02;;;1.42;;
51732;SDS011;39139;53.144;6.244;2022-12-08T10:17:31;3.15;;;1.65;;
51732;SDS011;39139;53.144;6.244;2022-12-08T10:20:09;3.25;;;1.70;;
51732;SDS011;39139;53.144;6.244;2022-12-08T10:22:38;2.42;;;1.17;;
51732;SDS011;39139;53.144;6.244;2022-12-08T10:27:41;5.22;;;2.20;;
51732;SDS011;39139;53.144;6.244;2022-12-08T10:30:10;4.85;;;2.13;;
51732;SDS011;39139;53.144;6.244;2022-12-08T10:32:41;3.08;;;1.48;;
51732;SDS011;39139;53.144;6.244;2022-12-08T10:37:37;3.85;;;0.73;;
51732;SDS011;39139;53.144;6.244;2022-12-08T10:40:10;3.15;;;0.60;;
51732;SDS011;39139;53.144;6.244;2022-12-08T10:42:42;2.17;;;1.17;;
51732;SDS011;39139;53.144;6.244;2022-12-08T10:45:17;1.50;;;0.63;;
51732;SDS011;39139;53.144;6.244;2022-12-08T10:48:08;7.03;;;1.20;;
51732;SDS011;39139;53.144;6.244;2022-12-08T10:50:42;7.40;;;1.17;;
51732;SDS011;39139;53.144;6.244;2022-12-08T10:55:48;5.10;;;0.80;;
51732;SDS011;39139;53.144;6.244;2022-12-08T10:58:24;3.72;;;0.90;;
51732;SDS011;39139;53.144;6.244;2022-12-08T11:00:56;5.97;;;0.70;;
51732;SDS011;39139;53.144;6.244;2022-12-08T11:03:33;3.80;;;1.52;;
51732;SDS011;39139;53.144;6.244;2022-12-08T11:06:00;3.88;;;1.20;;
51732;SDS011;39139;53.144;6.244;2022-12-08T11:08:42;6.28;;;1.52;;
51732;SDS011;39139;53.144;6.244;2022-12-08T11:11:14;7.38;;;1.15;;
51732;SDS011;39139;53.144;6.244;2022-12-08T11:13:41;4.00;;;1.63;;
51732;SDS011;39139;53.144;6.244;2022-12-08T11:16:07;6.70;;;1.30;;
51732;SDS011;39139;53.144;6.244;2022-12-08T11:18:42;1.90;;;1.20;;
51732;SDS011;39139;53.144;6.244;2022-12-08T11:21:19;1.42;;;0.98;;
51732;SDS011;39139;53.144;6.244;2022-12-08T11:23:59;5.68;;;1.20;;
51732;SDS011;39139;53.144;6.244;2022-12-08T11:26:48;7.10;;;1.35;;
51732;SDS011;39139;53.144;6.244;2022-12-08T11:29:25;3.17;;;0.93;;
51732;SDS011;39139;53.144;6.244;2022-12-08T11:31:56;4.97;;;1.35;;
51732;SDS011;39139;53.144;6.244;2022-12-08T11:34:30;2.88;;;1.40;;
51732;SDS011;39139;53.144;6.244;2022-12-08T11:37:17;5.57;;;1.35;;
51732;SDS011;39139;53.144;6.244;2022-12-08T11:39:52;7.20;;;1.00;;
51732;SDS011;39139;53.144;6.244;2022-12-08T11:42:21;6.90;;;1.38;;
51732;SDS011;39139;53.144;6.244;2022-12-08T11:44:57;8.02;;;1.23;;
51732;SDS011;39139;53.144;6.244;2022-12-08T11:47:30;7.93;;;1.23;;
51732;SDS011;39139;53.144;6.244;2022-12-08T11:50:02;3.50;;;1.30;;
51732;SDS011;39139;53.144;6.244;2022-12-08T11:52:58;4.85;;;1.40;;
51732;SDS011;39139;53.144;6.244;2022-12-08T11:55:33;2.80;;;0.70;;
51732;SDS011;39139;53.144;6.244;2022-12-08T11:58:12;2.50;;;0.70;;
51732;SDS011;39139;53.144;6.244;2022-12-08T12:00:43;4.88;;;0.88;;
51732;SDS011;39139;53.144;6.244;2022-12-08T12:03:23;1.35;;;0.10;;
51732;SDS011;39139;53.144;6.244;2022-12-08T12:09:30;4.97;;;0.30;;
51732;SDS011;39139;53.144;6.244;2022-12-08T12:12:08;0.98;;;0.30;;
51732;SDS011;39139;53.144;6.244;2022-12-08T12:19:53;1.75;;;0.20;;
51732;SDS011;39139;53.144;6.244;2022-12-08T12:22:21;2.58;;;0.20;;
51732;SDS011;39139;53.144;6.244;2022-12-08T12:24:48;2.47;;;0.50;;
51732;SDS011;39139;53.144;6.244;2022-12-08T12:27:26;3.60;;;0.47;;
51732;SDS011;39139;53.144;6.244;2022-12-08T12:30:05;5.07;;;0.52;;
51732;SDS011;39139;53.144;6.244;2022-12-08T12:32:43;2.38;;;0.65;;
51732;SDS011;39139;53.144;6.244;2022-12-08T12:35:15;3.25;;;0.80;;
51732;SDS011;39139;53.144;6.244;2022-12-08T12:37:45;4.30;;;1.10;;
51732;SDS011;39139;53.144;6.244;2022-12-08T12:40:20;7.75;;;0.98;;
51732;SDS011;39139;53.144;6.244;2022-12-08T12:43:11;9.13;;;1.10;;
51732;SDS011;39139;53.144;6.244;2022-12-08T12:45:34;5.78;;;0.82;;
51732;SDS011;39139;53.144;6.244;2022-12-08T13:00:47;8.20;;;0.90;;
51732;SDS011;39139;53.144;6.244;2022-12-08T13:03:13;3.88;;;0.98;;
51732;SDS011;39139;53.144;6.244;2022-12-08T13:05:50;6.10;;;0.80;;
51732;SDS011;39139;53.144;6.244;2022-12-08T13:08:21;1.80;;;0.95;;
51732;SDS011;39139;53.144;6.244;2022-12-08T13:10:58;6.35;;;0.93;;
51732;SDS011;39139;53.144;6.244;2022-12-08T13:16:12;7.22;;;1.73;;
51732;SDS011;39139;53.144;6.244;2022-12-08T13:18:46;3.50;;;1.13;;
51732;SDS011;39139;53.144;6.244;2022-12-08T13:21:20;5.18;;;0.50;;
51732;SDS011;39139;53.144;6.244;2022-12-08T13:26:32;5.60;;;0.60;;
51732;SDS011;39139;53.144;6.244;2022-12-08T13:29:19;3.22;;;0.70;;
51732;SDS011;39139;53.144;6.244;2022-12-08T13:31:58;4.90;;;0.63;;
51732;SDS011;39139;53.144;6.244;2022-12-08T13:39:32;1.42;;;0.70;;
51732;SDS011;39139;53.144;6.244;2022-12-08T13:47:55;7.60;;;0.88;;
51732;SDS011;39139;53.144;6.244;2022-12-08T13:50:42;4.20;;;0.80;;
51732;SDS011;39139;53.144;6.244;2022-12-08T13:53:22;3.33;;;1.20;;
51732;SDS011;39139;53.144;6.244;2022-12-08T13:55:53;2.55;;;0.70;;
51732;SDS011;39139;53.144;6.244;2022-12-08T13:58:28;2.75;;;0.88;;
51732;SDS011;39139;53.144;6.244;2022-12-08T14:03:29;3.35;;;0.70;;
51732;SDS011;39139;53.144;6.244;2022-12-08T14:05:55;1.80;;;0.98;;
51732;SDS011;39139;53.144;6.244;2022-12-08T14:08:27;4.40;;;0.82;;
51732;SDS011;39139;53.144;6.244;2022-12-08T14:11:03;3.30;;;1.20;;
51732;SDS011;39139;53.144;6.244;2022-12-08T14:13:30;5.28;;;0.90;;
51732;SDS011;39139;53.144;6.244;2022-12-08T14:15:57;2.28;;;0.68;;
51732;SDS011;39139;53.144;6.244;2022-12-08T14:18:24;1.48;;;0.60;;
51732;SDS011;39139;53.144;6.244;2022-12-08T14:21:02;3.15;;;0.40;;
51732;SDS011;39139;53.144;6.244;2022-12-08T14:23:33;2.67;;;0.38;;
51732;SDS011;39139;53.144;6.244;2022-12-08T14:26:00;4.13;;;0.50;;
51732;SDS011;39139;53.144;6.244;2022-12-08T14:28:27;2.10;;;0.20;;
51732;SDS011;39139;53.144;6.244;2022-12-08T14:30:53;1.48;;;0.17;;
51732;SDS011;39139;53.144;6.244;2022-12-08T14:33:19;3.55;;;0.13;;
51732;SDS011;39139;53.144;6.244;2022-12-08T14:35:49;1.65;;;0.55;;
51732;SDS011;39139;53.144;6.244;2022-12-08T14:38:18;6.15;;;0.40;;
51732;SDS011;39139;53.144;6.244;2022-12-08T14:40:48;3.10;;;0.22;;
51732;SDS011;39139;53.144;6.244;2022-12-08T14:43:28;0.95;;;0.60;;
51732;SDS011;39139;53.144;6.244;2022-12-08T14:45:56;1.35;;;0.22;;
51732;SDS011;39139;53.144;6.244;2022-12-08T14:48:45;1.90;;;0.43;;
51732;SDS011;39139;53.144;6.244;2022-12-08T14:53:54;0.32;;;0.25;;
51732;SDS011;39139;53.144;6.244;2022-12-08T14:56:27;0.73;;;0.13;;
51732;SDS011;39139;53.144;6.244;2022-12-08T14:59:02;0.45;;;0.10;;
51732;SDS011;39139;53.144;6.244;2022-12-08T15:01:32;0.82;;;0.28;;
51732;SDS011;39139;53.144;6.244;2022-12-08T15:04:06;1.25;;;0.32;;
51732;SDS011;39139;53.144;6.244;2022-12-08T15:06:59;1.70;;;0.20;;
51732;SDS011;39139;53.144;6.244;2022-12-08T15:12:14;4.07;;;0.30;;
51732;SDS011;39139;53.144;6.244;2022-12-08T15:15:30;2.85;;;0.20;;
51732;SDS011;39139;53.144;6.244;2022-12-08T15:22:52;3.53;;;0.45;;
51732;SDS011;39139;53.144;6.244;2022-12-08T15:25:19;5.75;;;0.77;;
51732;SDS011;39139;53.144;6.244;2022-12-08T15:27:45;0.63;;;0.40;;
51732;SDS011;39139;53.144;6.244;2022-12-08T15:30:14;0.88;;;0.40;;
51732;SDS011;39139;53.144;6.244;2022-12-08T15:32:41;2.45;;;1.00;;
51732;SDS011;39139;53.144;6.244;2022-12-08T15:35:11;0.95;;;0.85;;
51732;SDS011;39139;53.144;6.244;2022-12-08T15:37:38;0.88;;;0.70;;
51732;SDS011;39139;53.144;6.244;2022-12-08T15:40:04;1.60;;;0.50;;
51732;SDS011;39139;53.144;6.244;2022-12-08T15:42:30;3.65;;;0.70;;
51732;SDS011;39139;53.144;6.244;2022-12-08T15:44:56;4.13;;;0.70;;
51732;SDS011;39139;53.144;6.244;2022-12-08T15:47:22;6.18;;;0.85;;
51732;SDS011;39139;53.144;6.244;2022-12-08T15:49:49;1.80;;;0.65;;
51732;SDS011;39139;53.144;6.244;2022-12-08T15:52:21;5.78;;;0.63;;
51732;SDS011;39139;53.144;6.244;2022-12-08T15:54:48;4.00;;;0.45;;
51732;SDS011;39139;53.144;6.244;2022-12-08T15:57:24;2.42;;;0.95;;
51732;SDS011;39139;53.144;6.244;2022-12-08T15:59:55;3.50;;;0.60;;
51732;SDS011;39139;53.144;6.244;2022-12-08T16:02:20;0.52;;;0.38;;
51732;SDS011;39139;53.144;6.244;2022-12-08T16:04:46;1.88;;;0.52;;
51732;SDS011;39139;53.144;6.244;2022-12-08T16:07:25;2.83;;;0.28;;
51732;SDS011;39139;53.144;6.244;2022-12-08T16:09:52;1.92;;;0.40;;
51732;SDS011;39139;53.144;6.244;2022-12-08T16:12:23;1.98;;;0.40;;
51732;SDS011;39139;53.144;6.244;2022-12-08T16:15:09;1.25;;;0.55;;
51732;SDS011;39139;53.144;6.244;2022-12-08T16:17:36;0.75;;;0.50;;
51732;SDS011;39139;53.144;6.244;2022-12-08T16:20:03;2.83;;;0.55;;
51732;SDS011;39139;53.144;6.244;2022-12-08T16:22:32;2.40;;;0.50;;
51732;SDS011;39139;53.144;6.244;2022-12-08T16:24:57;3.25;;;0.75;;
51732;SDS011;39139;53.144;6.244;2022-12-08T16:27:24;2.33;;;0.73;;
51732;SDS011;39139;53.144;6.244;2022-12-08T16:29:52;1.67;;;1.23;;
51732;SDS011;39139;53.144;6.244;2022-12-08T16:32:19;1.00;;;0.75;;
51732;SDS011;39139;53.144;6.244;2022-12-08T16:34:45;2.75;;;0.68;;
51732;SDS011;39139;53.144;6.244;2022-12-08T16:37:13;4.72;;;0.93;;
51732;SDS011;39139;53.144;6.244;2022-12-08T16:39:43;3.55;;;0.73;;
51732;SDS011;39139;53.144;6.244;2022-12-08T16:42:16;4.57;;;0.40;;
51732;SDS011;39139;53.144;6.244;2022-12-08T16:45:07;1.48;;;0.63;;
51732;SDS011;39139;53.144;6.244;2022-12-08T16:47:39;2.28;;;0.85;;
51732;SDS011;39139;53.144;6.244;2022-12-08T16:50:14;3.88;;;0.95;;
51732;SDS011;39139;53.144;6.244;2022-12-08T16:52:42;1.60;;;0.57;;
51732;SDS011;39139;53.144;6.244;2022-12-08T16:55:09;1.30;;;0.80;;